sensor_id;sensor_type;location;lat;lon;timestamp;temperature;humidity
6307;DHT22;3186;54.062;9.962;2023-02-03T00:00:58;5.00;99.90
6307;DHT22;3186;54.062;9.962;2023-02-03T00:03:24;5.10;99.90
6307;DHT22;3186;54.062;9.962;2023-02-03T00:05:49;5.10;99.90
6307;DHT22;3186;54.062;9.962;2023-02-03T00:08:16;5.20;99.90
6307;DHT22;3186;54.062;9.962;2023-02-03T00:10:43;5.20;99.90
6307;DHT22;3186;54.062;9.962;2023-02-03T00:13:09;5.10;99.90
6307;DHT22;3186;54.062;9.962;2023-02-03T00:15:35;5.20;99.90
6307;DHT22;3186;54.062;9.962;2023-02-03T00:18:01;5.30;99.90
6307;DHT22;3186;54.062;9.962;2023-02-03T00:20:27;5.20;99.90
6307;DHT22;3186;54.062;9.962;2023-02-03T00:22:53;5.20;99.90
6307;DHT22;3186;54.062;9.962;2023-02-03T00:25:19;5.30;99.90
6307;DHT22;3186;54.062;9.962;2023-02-03T00:27:46;5.30;99.90
6307;DHT22;3186;54.062;9.962;2023-02-03T00:30:12;5.40;99.90
6307;DHT22;3186;54.062;9.962;2023-02-03T00:32:38;5.40;99.90
6307;DHT22;3186;54.062;9.962;2023-02-03T00:35:05;5.40;99.90
6307;DHT22;3186;54.062;9.962;2023-02-03T00:37:30;5.50;99.90
6307;DHT22;3186;54.062;9.962;2023-02-03T00:39:56;5.50;99.90
6307;DHT22;3186;54.062;9.962;2023-02-03T00:42:22;5.60;99.90
6307;DHT22;3186;54.062;9.962;2023-02-03T00:44:48;5.50;99.90
6307;DHT22;3186;54.062;9.962;2023-02-03T00:47:14;5.60;99.90
6307;DHT22;3186;54.062;9.962;2023-02-03T00:49:40;5.70;99.90
6307;DHT22;3186;54.062;9.962;2023-02-03T00:52:05;5.70;99.90
6307;DHT22;3186;54.062;9.962;2023-02-03T00:54:31;5.80;99.90
6307;DHT22;3186;54.062;9.962;2023-02-03T00:56:57;5.90;99.90
6307;DHT22;3186;54.062;9.962;2023-02-03T00:59:23;5.90;99.90
6307;DHT22;3186;54.062;9.962;2023-02-03T01:01:48;5.90;99.90
6307;DHT22;3186;54.062;9.962;2023-02-03T01:04:15;6.00;99.90
6307;DHT22;3186;54.062;9.962;2023-02-03T01:06:41;6.00;99.90
6307;DHT22;3186;54.062;9.962;2023-02-03T01:09:07;6.10;99.90
6307;DHT22;3186;54.062;9.962;2023-02-03T01:11:33;6.20;99.90
6307;DHT22;3186;54.062;9.962;2023-02-03T01:13:58;6.40;99.90
6307;DHT22;3186;54.062;9.962;2023-02-03T01:16:28;6.40;99.90
6307;DHT22;3186;54.062;9.962;2023-02-03T01:18:55;6.40;99.90
6307;DHT22;3186;54.062;9.962;2023-02-03T01:21:23;6.50;99.90
6307;DHT22;3186;54.062;9.962;2023-02-03T01:23:51;6.50;99.90
6307;DHT22;3186;54.062;9.962;2023-02-03T01:26:20;6.40;99.90
6307;DHT22;3186;54.062;9.962;2023-02-03T01:28:57;6.60;99.90
6307;DHT22;3186;54.062;9.962;2023-02-03T01:31:31;6.70;99.90
6307;DHT22;3186;54.062;9.962;2023-02-03T01:34:02;6.60;99.90
6307;DHT22;3186;54.062;9.962;2023-02-03T01:36:30;6.60;99.90
6307;DHT22;3186;54.062;9.962;2023-02-03T01:38:56;6.50;99.90
6307;DHT22;3186;54.062;9.962;2023-02-03T01:41:28;6.50;99.90
6307;DHT22;3186;54.062;9.962;2023-02-03T01:43:56;6.80;99.90
6307;DHT22;3186;54.062;9.962;2023-02-03T01:46:35;6.50;99.90
6307;DHT22;3186;54.062;9.962;2023-02-03T01:49:09;6.70;99.90
6307;DHT22;3186;54.062;9.962;2023-02-03T01:51:39;6.60;99.90
6307;DHT22;3186;54.062;9.962;2023-02-03T01:54:09;6.60;99.90
6307;DHT22;3186;54.062;9.962;2023-02-03T01:56:41;6.70;99.90
6307;DHT22;3186;54.062;9.962;2023-02-03T01:59:08;6.80;99.90
6307;DHT22;3186;54.062;9.962;2023-02-03T02:01:34;6.60;99.90
6307;DHT22;3186;54.062;9.962;2023-02-03T02:04:03;6.60;99.90
6307;DHT22;3186;54.062;9.962;2023-02-03T02:06:29;6.60;99.90
6307;DHT22;3186;54.062;9.962;2023-02-03T02:08:57;6.80;99.90
6307;DHT22;3186;54.062;9.962;2023-02-03T02:11:26;6.90;99.90
6307;DHT22;3186;54.062;9.962;2023-02-03T02:13:55;6.70;99.90
6307;DHT22;3186;54.062;9.962;2023-02-03T02:35:52;7.10;99.90
6307;DHT22;3186;54.062;9.962;2023-02-03T02:38:36;6.80;99.90
6307;DHT22;3186;54.062;9.962;2023-02-03T02:43:40;7.00;99.90
6307;DHT22;3186;54.062;9.962;2023-02-03T02:46:20;7.00;99.90
6307;DHT22;3186;54.062;9.962;2023-02-03T02:48:58;7.00;99.90
6307;DHT22;3186;54.062;9.962;2023-02-03T02:51:28;7.00;99.90
6307;DHT22;3186;54.062;9.962;2023-02-03T02:53:58;7.00;99.90
6307;DHT22;3186;54.062;9.962;2023-02-03T02:56:26;6.90;99.90
6307;DHT22;3186;54.062;9.962;2023-02-03T02:58:54;6.80;99.90
6307;DHT22;3186;54.062;9.962;2023-02-03T03:01:20;7.10;99.90
6307;DHT22;3186;54.062;9.962;2023-02-03T03:03:47;7.00;99.90
6307;DHT22;3186;54.062;9.962;2023-02-03T03:06:45;6.90;99.90
6307;DHT22;3186;54.062;9.962;2023-02-03T03:09:25;7.10;99.90
6307;DHT22;3186;54.062;9.962;2023-02-03T03:11:56;7.10;99.90
6307;DHT22;3186;54.062;9.962;2023-02-03T03:14:26;7.10;99.90
6307;DHT22;3186;54.062;9.962;2023-02-03T03:16:58;7.10;99.90
6307;DHT22;3186;54.062;9.962;2023-02-03T03:19:30;7.10;99.90
6307;DHT22;3186;54.062;9.962;2023-02-03T03:22:01;7.20;99.90
6307;DHT22;3186;54.062;9.962;2023-02-03T03:24:34;7.10;99.90
6307;DHT22;3186;54.062;9.962;2023-02-03T03:27:19;6.80;99.90
6307;DHT22;3186;54.062;9.962;2023-02-03T03:29:59;7.00;99.90
6307;DHT22;3186;54.062;9.962;2023-02-03T03:32:27;7.10;99.90
6307;DHT22;3186;54.062;9.962;2023-02-03T03:34:55;7.00;99.90
6307;DHT22;3186;54.062;9.962;2023-02-03T03:39:54;7.10;99.90
6307;DHT22;3186;54.062;9.962;2023-02-03T03:48:02;7.00;99.90
6307;DHT22;3186;54.062;9.962;2023-02-03T03:50:40;7.10;99.90
6307;DHT22;3186;54.062;9.962;2023-02-03T03:53:08;7.20;99.90
6307;DHT22;3186;54.062;9.962;2023-02-03T03:55:35;8.10;99.90
6307;DHT22;3186;54.062;9.962;2023-02-03T03:58:13;7.20;99.90
6307;DHT22;3186;54.062;9.962;2023-02-03T04:00:40;7.20;99.90
6307;DHT22;3186;54.062;9.962;2023-02-03T04:03:16;7.20;99.90
6307;DHT22;3186;54.062;9.962;2023-02-03T04:05:43;7.20;99.90
6307;DHT22;3186;54.062;9.962;2023-02-03T04:08:09;7.20;99.90
6307;DHT22;3186;54.062;9.962;2023-02-03T04:10:37;7.10;99.90
6307;DHT22;3186;54.062;9.962;2023-02-03T04:13:05;7.20;99.90
6307;DHT22;3186;54.062;9.962;2023-02-03T04:15:32;7.20;99.90
6307;DHT22;3186;54.062;9.962;2023-02-03T04:17:58;7.20;99.90
6307;DHT22;3186;54.062;9.962;2023-02-03T04:20:29;7.20;99.90
6307;DHT22;3186;54.062;9.962;2023-02-03T04:22:56;7.20;99.90
6307;DHT22;3186;54.062;9.962;2023-02-03T04:25:23;7.20;99.90
6307;DHT22;3186;54.062;9.962;2023-02-03T04:27:49;7.20;99.90
6307;DHT22;3186;54.062;9.962;2023-02-03T04:30:15;7.10;99.90
6307;DHT22;3186;54.062;9.962;2023-02-03T04:32:46;7.20;99.90
6307;DHT22;3186;54.062;9.962;2023-02-03T04:35:12;7.20;99.90
6307;DHT22;3186;54.062;9.962;2023-02-03T04:37:38;7.20;99.90
6307;DHT22;3186;54.062;9.962;2023-02-03T04:40:05;7.10;99.90
6307;DHT22;3186;54.062;9.962;2023-02-03T04:42:31;7.30;99.90
6307;DHT22;3186;54.062;9.962;2023-02-03T04:44:57;8.30;99.90
6307;DHT22;3186;54.062;9.962;2023-02-03T04:47:23;7.20;99.90
6307;DHT22;3186;54.062;9.962;2023-02-03T04:49:48;7.30;99.90
6307;DHT22;3186;54.062;9.962;2023-02-03T04:52:14;7.20;99.90
6307;DHT22;3186;54.062;9.962;2023-02-03T04:54:40;7.30;99.90
6307;DHT22;3186;54.062;9.962;2023-02-03T04:57:06;7.20;99.90
6307;DHT22;3186;54.062;9.962;2023-02-03T04:59:32;7.30;99.90
6307;DHT22;3186;54.062;9.962;2023-02-03T05:02:00;7.30;99.90
6307;DHT22;3186;54.062;9.962;2023-02-03T05:04:26;7.30;99.90
6307;DHT22;3186;54.062;9.962;2023-02-03T05:06:52;7.20;99.90
6307;DHT22;3186;54.062;9.962;2023-02-03T05:09:17;7.20;99.90
6307;DHT22;3186;54.062;9.962;2023-02-03T05:11:43;7.20;99.90
6307;DHT22;3186;54.062;9.962;2023-02-03T05:14:09;7.20;99.90
6307;DHT22;3186;54.062;9.962;2023-02-03T05:16:35;7.20;99.90
6307;DHT22;3186;54.062;9.962;2023-02-03T05:19:01;7.20;99.90
6307;DHT22;3186;54.062;9.962;2023-02-03T05:21:26;7.30;99.90
6307;DHT22;3186;54.062;9.962;2023-02-03T05:23:52;7.20;99.90
6307;DHT22;3186;54.062;9.962;2023-02-03T05:26:18;7.30;99.90
6307;DHT22;3186;54.062;9.962;2023-02-03T05:28:44;7.20;99.90
6307;DHT22;3186;54.062;9.962;2023-02-03T05:31:09;7.20;99.90
6307;DHT22;3186;54.062;9.962;2023-02-03T05:33:35;7.20;99.90
6307;DHT22;3186;54.062;9.962;2023-02-03T05:36:01;7.30;99.90
6307;DHT22;3186;54.062;9.962;2023-02-03T05:38:27;7.30;99.90
6307;DHT22;3186;54.062;9.962;2023-02-03T05:40:53;7.30;99.90
6307;DHT22;3186;54.062;9.962;2023-02-03T05:43:37;7.30;99.90
6307;DHT22;3186;54.062;9.962;2023-02-03T05:46:04;7.40;99.90
6307;DHT22;3186;54.062;9.962;2023-02-03T05:48:31;7.30;99.90
6307;DHT22;3186;54.062;9.962;2023-02-03T05:50:58;7.20;99.90
6307;DHT22;3186;54.062;9.962;2023-02-03T05:53:24;7.30;99.90
6307;DHT22;3186;54.062;9.962;2023-02-03T05:55:53;7.30;99.90
6307;DHT22;3186;54.062;9.962;2023-02-03T05:58:19;7.30;99.90
6307;DHT22;3186;54.062;9.962;2023-02-03T06:00:45;7.40;99.90
6307;DHT22;3186;54.062;9.962;2023-02-03T06:03:11;7.30;99.90
6307;DHT22;3186;54.062;9.962;2023-02-03T06:05:37;7.40;99.90
6307;DHT22;3186;54.062;9.962;2023-02-03T06:08:06;7.20;99.90
6307;DHT22;3186;54.062;9.962;2023-02-03T06:10:33;7.30;99.90
6307;DHT22;3186;54.062;9.962;2023-02-03T06:12:58;7.40;99.90
6307;DHT22;3186;54.062;9.962;2023-02-03T06:15:24;7.40;99.90
6307;DHT22;3186;54.062;9.962;2023-02-03T06:17:50;7.40;99.90
6307;DHT22;3186;54.062;9.962;2023-02-03T06:20:18;7.40;99.90
6307;DHT22;3186;54.062;9.962;2023-02-03T06:22:44;7.40;99.90
6307;DHT22;3186;54.062;9.962;2023-02-03T06:25:10;7.30;99.90
6307;DHT22;3186;54.062;9.962;2023-02-03T06:27:39;7.50;99.90
6307;DHT22;3186;54.062;9.962;2023-02-03T06:30:05;7.40;99.90
6307;DHT22;3186;54.062;9.962;2023-02-03T06:32:31;7.50;99.90
6307;DHT22;3186;54.062;9.962;2023-02-03T06:34:57;7.40;99.90
6307;DHT22;3186;54.062;9.962;2023-02-03T06:37:23;7.50;99.90
6307;DHT22;3186;54.062;9.962;2023-02-03T06:39:49;7.40;99.90
6307;DHT22;3186;54.062;9.962;2023-02-03T06:42:14;7.40;99.90
6307;DHT22;3186;54.062;9.962;2023-02-03T06:44:40;7.40;99.90
6307;DHT22;3186;54.062;9.962;2023-02-03T06:47:07;7.50;99.90
6307;DHT22;3186;54.062;9.962;2023-02-03T06:49:32;7.50;99.90
6307;DHT22;3186;54.062;9.962;2023-02-03T06:51:58;7.50;99.90
6307;DHT22;3186;54.062;9.962;2023-02-03T06:54:24;7.50;99.90
6307;DHT22;3186;54.062;9.962;2023-02-03T06:56:50;7.50;99.90
6307;DHT22;3186;54.062;9.962;2023-02-03T06:59:16;7.50;99.90
6307;DHT22;3186;54.062;9.962;2023-02-03T07:01:42;7.50;99.90
6307;DHT22;3186;54.062;9.962;2023-02-03T07:04:07;7.60;99.90
6307;DHT22;3186;54.062;9.962;2023-02-03T07:06:34;7.60;99.90
6307;DHT22;3186;54.062;9.962;2023-02-03T07:09:02;7.50;99.90
6307;DHT22;3186;54.062;9.962;2023-02-03T07:11:28;7.60;99.90
6307;DHT22;3186;54.062;9.962;2023-02-03T07:13:55;7.50;99.90
6307;DHT22;3186;54.062;9.962;2023-02-03T07:16:21;7.50;99.90
6307;DHT22;3186;54.062;9.962;2023-02-03T07:18:46;7.40;99.90
6307;DHT22;3186;54.062;9.962;2023-02-03T07:21:13;7.40;99.90
6307;DHT22;3186;54.062;9.962;2023-02-03T07:23:39;7.40;99.90
6307;DHT22;3186;54.062;9.962;2023-02-03T07:26:06;7.40;99.90
6307;DHT22;3186;54.062;9.962;2023-02-03T07:28:33;7.30;99.90
6307;DHT22;3186;54.062;9.962;2023-02-03T07:31:00;7.30;99.90
6307;DHT22;3186;54.062;9.962;2023-02-03T07:33:26;7.30;99.90
6307;DHT22;3186;54.062;9.962;2023-02-03T07:35:57;7.30;99.90
6307;DHT22;3186;54.062;9.962;2023-02-03T07:38:24;7.30;99.90
6307;DHT22;3186;54.062;9.962;2023-02-03T07:40:50;7.30;99.90
6307;DHT22;3186;54.062;9.962;2023-02-03T07:43:16;7.10;99.90
6307;DHT22;3186;54.062;9.962;2023-02-03T07:45:43;7.30;99.90
6307;DHT22;3186;54.062;9.962;2023-02-03T07:48:08;7.40;99.90
6307;DHT22;3186;54.062;9.962;2023-02-03T07:50:35;7.30;99.90
6307;DHT22;3186;54.062;9.962;2023-02-03T07:53:01;7.30;99.90
6307;DHT22;3186;54.062;9.962;2023-02-03T07:55:28;7.40;99.90
6307;DHT22;3186;54.062;9.962;2023-02-03T07:57:57;7.40;99.90
6307;DHT22;3186;54.062;9.962;2023-02-03T08:00:24;7.30;99.90
6307;DHT22;3186;54.062;9.962;2023-02-03T08:02:50;7.40;99.90
6307;DHT22;3186;54.062;9.962;2023-02-03T08:05:16;7.40;99.90
6307;DHT22;3186;54.062;9.962;2023-02-03T08:07:43;7.30;99.90
6307;DHT22;3186;54.062;9.962;2023-02-03T08:10:11;7.40;99.90
6307;DHT22;3186;54.062;9.962;2023-02-03T08:12:37;7.40;99.90
6307;DHT22;3186;54.062;9.962;2023-02-03T08:15:04;7.40;99.90
6307;DHT22;3186;54.062;9.962;2023-02-03T08:17:31;7.40;99.90
6307;DHT22;3186;54.062;9.962;2023-02-03T08:19:58;7.40;99.90
6307;DHT22;3186;54.062;9.962;2023-02-03T08:22:24;7.40;99.90
6307;DHT22;3186;54.062;9.962;2023-02-03T08:24:51;7.40;99.90
6307;DHT22;3186;54.062;9.962;2023-02-03T08:27:19;7.40;99.90
6307;DHT22;3186;54.062;9.962;2023-02-03T08:29:46;7.40;99.90
6307;DHT22;3186;54.062;9.962;2023-02-03T08:32:17;7.40;99.90
6307;DHT22;3186;54.062;9.962;2023-02-03T08:34:44;7.40;99.90
6307;DHT22;3186;54.062;9.962;2023-02-03T08:37:11;7.40;99.90
6307;DHT22;3186;54.062;9.962;2023-02-03T08:39:39;7.30;99.90
6307;DHT22;3186;54.062;9.962;2023-02-03T08:42:05;7.30;99.90
6307;DHT22;3186;54.062;9.962;2023-02-03T08:44:31;7.30;99.90
6307;DHT22;3186;54.062;9.962;2023-02-03T08:46:58;7.30;99.90
6307;DHT22;3186;54.062;9.962;2023-02-03T08:49:26;7.30;99.90
6307;DHT22;3186;54.062;9.962;2023-02-03T08:51:52;7.40;99.90
6307;DHT22;3186;54.062;9.962;2023-02-03T08:54:19;7.40;99.90
6307;DHT22;3186;54.062;9.962;2023-02-03T08:56:45;7.40;99.90
6307;DHT22;3186;54.062;9.962;2023-02-03T08:59:11;7.30;99.90
6307;DHT22;3186;54.062;9.962;2023-02-03T09:01:37;7.50;99.90
6307;DHT22;3186;54.062;9.962;2023-02-03T09:04:06;7.40;99.90
6307;DHT22;3186;54.062;9.962;2023-02-03T09:06:34;7.40;99.90
6307;DHT22;3186;54.062;9.962;2023-02-03T09:09:00;7.30;99.90
6307;DHT22;3186;54.062;9.962;2023-02-03T09:11:25;7.40;99.90
6307;DHT22;3186;54.062;9.962;2023-02-03T09:13:51;7.40;99.90
6307;DHT22;3186;54.062;9.962;2023-02-03T09:16:18;7.40;99.90
6307;DHT22;3186;54.062;9.962;2023-02-03T09:18:46;7.40;99.90
6307;DHT22;3186;54.062;9.962;2023-02-03T09:21:13;7.40;99.90
6307;DHT22;3186;54.062;9.962;2023-02-03T09:23:40;7.40;99.90
6307;DHT22;3186;54.062;9.962;2023-02-03T09:26:08;7.40;99.90
6307;DHT22;3186;54.062;9.962;2023-02-03T09:28:35;7.40;99.90
6307;DHT22;3186;54.062;9.962;2023-02-03T09:31:06;7.50;99.90
6307;DHT22;3186;54.062;9.962;2023-02-03T09:33:32;7.40;99.90
6307;DHT22;3186;54.062;9.962;2023-02-03T09:35:59;7.40;99.90
6307;DHT22;3186;54.062;9.962;2023-02-03T09:38:25;7.40;99.90
6307;DHT22;3186;54.062;9.962;2023-02-03T09:46:02;7.30;99.90
6307;DHT22;3186;54.062;9.962;2023-02-03T09:48:37;7.30;99.90
6307;DHT22;3186;54.062;9.962;2023-02-03T09:51:07;7.30;99.90
6307;DHT22;3186;54.062;9.962;2023-02-03T09:53:44;7.30;99.90
6307;DHT22;3186;54.062;9.962;2023-02-03T09:56:31;7.30;99.90
6307;DHT22;3186;54.062;9.962;2023-02-03T09:58:58;7.30;99.90
6307;DHT22;3186;54.062;9.962;2023-02-03T10:01:48;7.30;99.90
6307;DHT22;3186;54.062;9.962;2023-02-03T10:04:50;7.30;99.90
6307;DHT22;3186;54.062;9.962;2023-02-03T10:07:21;7.30;99.90
6307;DHT22;3186;54.062;9.962;2023-02-03T10:10:00;7.30;99.90
6307;DHT22;3186;54.062;9.962;2023-02-03T10:12:46;7.40;99.90
6307;DHT22;3186;54.062;9.962;2023-02-03T10:17:52;7.30;99.90
6307;DHT22;3186;54.062;9.962;2023-02-03T10:20:57;7.30;99.90
6307;DHT22;3186;54.062;9.962;2023-02-03T10:23:35;7.40;99.90
6307;DHT22;3186;54.062;9.962;2023-02-03T10:26:08;7.30;99.90
6307;DHT22;3186;54.062;9.962;2023-02-03T10:28:40;7.30;99.90
6307;DHT22;3186;54.062;9.962;2023-02-03T10:31:17;7.40;99.90
6307;DHT22;3186;54.062;9.962;2023-02-03T10:33:43;7.40;99.90
6307;DHT22;3186;54.062;9.962;2023-02-03T10:36:24;7.40;99.90
6307;DHT22;3186;54.062;9.962;2023-02-03T10:41:42;7.50;99.90
6307;DHT22;3186;54.062;9.962;2023-02-03T10:44:12;7.50;99.90
6307;DHT22;3186;54.062;9.962;2023-02-03T10:46:40;7.50;99.90
6307;DHT22;3186;54.062;9.962;2023-02-03T10:49:08;7.40;99.90
6307;DHT22;3186;54.062;9.962;2023-02-03T10:51:43;7.50;99.90
6307;DHT22;3186;54.062;9.962;2023-02-03T10:54:30;7.60;99.90
6307;DHT22;3186;54.062;9.962;2023-02-03T10:57:02;7.60;99.90
6307;DHT22;3186;54.062;9.962;2023-02-03T10:59:32;7.50;99.90
6307;DHT22;3186;54.062;9.962;2023-02-03T11:01:59;7.70;99.90
6307;DHT22;3186;54.062;9.962;2023-02-03T11:04:30;7.80;99.90
6307;DHT22;3186;54.062;9.962;2023-02-03T11:07:06;7.80;99.90
6307;DHT22;3186;54.062;9.962;2023-02-03T11:09:34;7.80;99.90
6307;DHT22;3186;54.062;9.962;2023-02-03T11:12:13;7.50;99.90
6307;DHT22;3186;54.062;9.962;2023-02-03T11:14:42;7.70;99.90
6307;DHT22;3186;54.062;9.962;2023-02-03T11:17:19;7.70;99.90
6307;DHT22;3186;54.062;9.962;2023-02-03T11:19:52;7.70;99.90
6307;DHT22;3186;54.062;9.962;2023-02-03T11:22:35;7.60;99.90
6307;DHT22;3186;54.062;9.962;2023-02-03T11:25:04;7.60;99.90
6307;DHT22;3186;54.062;9.962;2023-02-03T11:27:40;7.70;99.90
6307;DHT22;3186;54.062;9.962;2023-02-03T11:30:29;7.70;99.90
6307;DHT22;3186;54.062;9.962;2023-02-03T11:32:55;7.70;99.90
6307;DHT22;3186;54.062;9.962;2023-02-03T11:35:29;7.60;99.90
6307;DHT22;3186;54.062;9.962;2023-02-03T11:38:02;7.70;99.90
6307;DHT22;3186;54.062;9.962;2023-02-03T11:40:32;7.90;99.90
6307;DHT22;3186;54.062;9.962;2023-02-03T11:43:14;7.90;99.90
6307;DHT22;3186;54.062;9.962;2023-02-03T11:45:49;7.90;99.90
6307;DHT22;3186;54.062;9.962;2023-02-03T11:51:20;8.00;99.90
6307;DHT22;3186;54.062;9.962;2023-02-03T11:54:17;8.00;99.90
6307;DHT22;3186;54.062;9.962;2023-02-03T12:00:44;8.00;99.90
6307;DHT22;3186;54.062;9.962;2023-02-03T12:08:13;7.90;99.90
6307;DHT22;3186;54.062;9.962;2023-02-03T12:14:03;7.90;99.90
6307;DHT22;3186;54.062;9.962;2023-02-03T12:19:50;7.90;99.90
6307;DHT22;3186;54.062;9.962;2023-02-03T12:23:02;7.90;99.90
6307;DHT22;3186;54.062;9.962;2023-02-03T12:31:03;8.00;99.90
6307;DHT22;3186;54.062;9.962;2023-02-03T12:33:42;8.10;99.90
6307;DHT22;3186;54.062;9.962;2023-02-03T12:36:26;8.00;99.90
6307;DHT22;3186;54.062;9.962;2023-02-03T12:44:40;8.10;99.90
6307;DHT22;3186;54.062;9.962;2023-02-03T12:47:20;8.10;99.90
6307;DHT22;3186;54.062;9.962;2023-02-03T12:49:54;8.00;99.90
6307;DHT22;3186;54.062;9.962;2023-02-03T12:52:29;7.90;99.90
6307;DHT22;3186;54.062;9.962;2023-02-03T13:05:50;7.90;99.90
6307;DHT22;3186;54.062;9.962;2023-02-03T13:14:21;7.80;99.90
6307;DHT22;3186;54.062;9.962;2023-02-03T13:16:59;8.00;99.90
6307;DHT22;3186;54.062;9.962;2023-02-03T13:19:34;7.90;99.90
6307;DHT22;3186;54.062;9.962;2023-02-03T13:22:10;7.90;99.90
6307;DHT22;3186;54.062;9.962;2023-02-03T13:24:38;8.00;99.90
6307;DHT22;3186;54.062;9.962;2023-02-03T13:41:18;7.90;99.90
6307;DHT22;3186;54.062;9.962;2023-02-03T13:43:48;7.90;99.90
6307;DHT22;3186;54.062;9.962;2023-02-03T13:46:22;7.90;99.90
6307;DHT22;3186;54.062;9.962;2023-02-03T13:48:50;7.90;99.90
6307;DHT22;3186;54.062;9.962;2023-02-03T13:51:21;7.80;99.90
6307;DHT22;3186;54.062;9.962;2023-02-03T13:53:49;7.80;99.90
6307;DHT22;3186;54.062;9.962;2023-02-03T13:56:25;7.90;99.90
6307;DHT22;3186;54.062;9.962;2023-02-03T14:01:35;7.80;99.90
6307;DHT22;3186;54.062;9.962;2023-02-03T14:04:07;7.90;99.90
6307;DHT22;3186;54.062;9.962;2023-02-03T14:09:19;7.80;99.90
6307;DHT22;3186;54.062;9.962;2023-02-03T14:11:45;7.90;99.90
6307;DHT22;3186;54.062;9.962;2023-02-03T14:16:41;7.90;99.90
6307;DHT22;3186;54.062;9.962;2023-02-03T14:19:56;7.90;99.90
6307;DHT22;3186;54.062;9.962;2023-02-03T14:22:06;7.90;99.90
6307;DHT22;3186;54.062;9.962;2023-02-03T14:24:42;7.90;99.90
6307;DHT22;3186;54.062;9.962;2023-02-03T14:27:21;7.90;99.90
6307;DHT22;3186;54.062;9.962;2023-02-03T14:30:08;7.90;99.90
6307;DHT22;3186;54.062;9.962;2023-02-03T14:35:20;7.80;99.90
6307;DHT22;3186;54.062;9.962;2023-02-03T14:38:07;7.80;99.90
6307;DHT22;3186;54.062;9.962;2023-02-03T14:43:36;7.80;99.90
6307;DHT22;3186;54.062;9.962;2023-02-03T14:48:54;7.70;99.90
6307;DHT22;3186;54.062;9.962;2023-02-03T14:57:56;7.70;99.90
6307;DHT22;3186;54.062;9.962;2023-02-03T14:59:57;7.70;99.90
6307;DHT22;3186;54.062;9.962;2023-02-03T15:02:26;7.80;99.90
6307;DHT22;3186;54.062;9.962;2023-02-03T15:10:18;7.80;99.90
6307;DHT22;3186;54.062;9.962;2023-02-03T15:12:56;7.70;99.90
6307;DHT22;3186;54.062;9.962;2023-02-03T15:15:30;7.60;99.90
6307;DHT22;3186;54.062;9.962;2023-02-03T15:17:59;7.70;99.90
6307;DHT22;3186;54.062;9.962;2023-02-03T15:20:39;7.70;99.90
6307;DHT22;3186;54.062;9.962;2023-02-03T15:23:26;7.70;99.90
6307;DHT22;3186;54.062;9.962;2023-02-03T15:25:57;7.60;99.90
6307;DHT22;3186;54.062;9.962;2023-02-03T15:28:25;7.60;99.90
6307;DHT22;3186;54.062;9.962;2023-02-03T15:31:18;7.60;99.90
6307;DHT22;3186;54.062;9.962;2023-02-03T15:33:47;7.60;99.90
6307;DHT22;3186;54.062;9.962;2023-02-03T15:36:20;7.60;99.90
6307;DHT22;3186;54.062;9.962;2023-02-03T15:38:55;7.50;99.90
6307;DHT22;3186;54.062;9.962;2023-02-03T15:41:24;7.50;99.90
6307;DHT22;3186;54.062;9.962;2023-02-03T15:43:59;7.50;99.90
6307;DHT22;3186;54.062;9.962;2023-02-03T15:49:15;7.50;99.90
6307;DHT22;3186;54.062;9.962;2023-02-03T15:52:13;7.50;99.90
6307;DHT22;3186;54.062;9.962;2023-02-03T15:54:45;7.40;99.90
6307;DHT22;3186;54.062;9.962;2023-02-03T15:57:24;7.40;99.90
6307;DHT22;3186;54.062;9.962;2023-02-03T16:00:10;7.40;99.90
6307;DHT22;3186;54.062;9.962;2023-02-03T16:02:42;7.40;99.90
6307;DHT22;3186;54.062;9.962;2023-02-03T16:07:51;7.30;99.90
6307;DHT22;3186;54.062;9.962;2023-02-03T16:10:32;7.30;99.90
6307;DHT22;3186;54.062;9.962;2023-02-03T16:13:20;7.30;99.90
6307;DHT22;3186;54.062;9.962;2023-02-03T16:16:05;7.20;99.90
6307;DHT22;3186;54.062;9.962;2023-02-03T16:18:35;7.20;99.90
6307;DHT22;3186;54.062;9.962;2023-02-03T16:21:02;7.20;99.90
6307;DHT22;3186;54.062;9.962;2023-02-03T16:23:28;7.20;99.90
6307;DHT22;3186;54.062;9.962;2023-02-03T16:26:02;7.10;99.90
6307;DHT22;3186;54.062;9.962;2023-02-03T16:28:28;7.10;99.90
6307;DHT22;3186;54.062;9.962;2023-02-03T16:31:19;7.10;99.90
6307;DHT22;3186;54.062;9.962;2023-02-03T16:34:23;7.10;99.90
6307;DHT22;3186;54.062;9.962;2023-02-03T16:37:33;7.00;99.90
6307;DHT22;3186;54.062;9.962;2023-02-03T16:40:21;7.00;99.90
6307;DHT22;3186;54.062;9.962;2023-02-03T16:43:14;7.00;99.90
6307;DHT22;3186;54.062;9.962;2023-02-03T16:45:59;7.00;99.90
6307;DHT22;3186;54.062;9.962;2023-02-03T16:48:44;7.10;99.90
6307;DHT22;3186;54.062;9.962;2023-02-03T16:51:40;7.00;99.90
6307;DHT22;3186;54.062;9.962;2023-02-03T16:54:10;7.00;99.90
6307;DHT22;3186;54.062;9.962;2023-02-03T16:56:37;7.00;99.90
6307;DHT22;3186;54.062;9.962;2023-02-03T16:59:03;7.00;99.90
6307;DHT22;3186;54.062;9.962;2023-02-03T17:01:31;7.00;99.90
6307;DHT22;3186;54.062;9.962;2023-02-03T17:04:00;6.90;99.90
6307;DHT22;3186;54.062;9.962;2023-02-03T17:06:27;6.90;99.90
6307;DHT22;3186;54.062;9.962;2023-02-03T17:08:53;7.00;99.90
6307;DHT22;3186;54.062;9.962;2023-02-03T17:11:21;6.90;99.90
6307;DHT22;3186;54.062;9.962;2023-02-03T17:13:48;6.90;99.90
6307;DHT22;3186;54.062;9.962;2023-02-03T17:16:19;6.90;99.90
6307;DHT22;3186;54.062;9.962;2023-02-03T17:18:46;6.90;99.90
6307;DHT22;3186;54.062;9.962;2023-02-03T17:21:16;6.90;99.90
6307;DHT22;3186;54.062;9.962;2023-02-03T17:23:42;7.00;99.90
6307;DHT22;3186;54.062;9.962;2023-02-03T17:26:08;7.00;99.90
6307;DHT22;3186;54.062;9.962;2023-02-03T17:28:35;7.00;99.90
6307;DHT22;3186;54.062;9.962;2023-02-03T17:31:03;6.90;99.90
6307;DHT22;3186;54.062;9.962;2023-02-03T17:33:30;6.90;99.90
6307;DHT22;3186;54.062;9.962;2023-02-03T17:36:09;6.90;99.90
6307;DHT22;3186;54.062;9.962;2023-02-03T17:38:40;6.90;99.90
6307;DHT22;3186;54.062;9.962;2023-02-03T17:41:11;6.90;99.90
6307;DHT22;3186;54.062;9.962;2023-02-03T17:43:38;6.90;99.90
6307;DHT22;3186;54.062;9.962;2023-02-03T17:46:04;6.80;99.90
6307;DHT22;3186;54.062;9.962;2023-02-03T17:48:30;6.80;99.90
6307;DHT22;3186;54.062;9.962;2023-02-03T17:51:05;6.80;99.90
6307;DHT22;3186;54.062;9.962;2023-02-03T17:53:32;6.80;99.90
6307;DHT22;3186;54.062;9.962;2023-02-03T17:55:58;7.10;99.90
6307;DHT22;3186;54.062;9.962;2023-02-03T17:58:23;6.80;99.90
6307;DHT22;3186;54.062;9.962;2023-02-03T18:00:49;6.70;99.90
6307;DHT22;3186;54.062;9.962;2023-02-03T18:03:15;6.80;99.90
6307;DHT22;3186;54.062;9.962;2023-02-03T18:05:49;6.80;99.90
6307;DHT22;3186;54.062;9.962;2023-02-03T18:08:15;6.80;99.90
6307;DHT22;3186;54.062;9.962;2023-02-03T18:10:41;6.80;99.90
6307;DHT22;3186;54.062;9.962;2023-02-03T18:13:07;6.80;99.90
6307;DHT22;3186;54.062;9.962;2023-02-03T18:15:33;6.80;99.90
6307;DHT22;3186;54.062;9.962;2023-02-03T18:17:59;6.80;99.90
6307;DHT22;3186;54.062;9.962;2023-02-03T18:22:51;6.80;99.90
6307;DHT22;3186;54.062;9.962;2023-02-03T18:25:17;6.80;99.90
6307;DHT22;3186;54.062;9.962;2023-02-03T18:27:43;6.70;99.90
6307;DHT22;3186;54.062;9.962;2023-02-03T18:30:09;6.90;99.90
6307;DHT22;3186;54.062;9.962;2023-02-03T18:32:36;6.80;99.90
6307;DHT22;3186;54.062;9.962;2023-02-03T18:35:02;6.80;99.90
6307;DHT22;3186;54.062;9.962;2023-02-03T18:37:28;6.80;99.90
6307;DHT22;3186;54.062;9.962;2023-02-03T18:39:54;6.80;99.90
6307;DHT22;3186;54.062;9.962;2023-02-03T18:42:20;6.70;99.90
6307;DHT22;3186;54.062;9.962;2023-02-03T18:44:46;6.80;99.90
6307;DHT22;3186;54.062;9.962;2023-02-03T18:47:12;6.80;99.90
6307;DHT22;3186;54.062;9.962;2023-02-03T18:49:38;6.70;99.90
6307;DHT22;3186;54.062;9.962;2023-02-03T18:52:04;6.70;99.90
6307;DHT22;3186;54.062;9.962;2023-02-03T18:54:30;6.80;99.90